Time;durP1;ratioP1;P1;durP2;ratioP2;P2;SDS_P1;SDS_P2;PMS_P1;PMS_P2;Temp;Humidity;BMP_temperature;BMP_pressure;BME280_temperature;BME280_humidity;BME280_pressure;Samples;Min_cycle;Max_cycle;Signal;HPM_P1;HPM_P2
2024/02/14 00:01:56;;;;;;;;;;;15.90;64.40;;;;;;5034379;28;19921;-73
2024/02/14 00:04:22;;;;;;;;;;;15.90;64.80;;;;;;5034283;28;19909;-72
2024/02/14 00:06:47;;;;;;;;;;;15.90;64.80;;;;;;5033978;28;20004;-72
2024/02/14 00:09:13;;;;;;;;;;;15.90;64.90;;;;;;5033806;28;19939;-73
2024/02/14 00:11:39;;;;;;;;;;;15.90;64.80;;;;;;5034038;28;19913;-72
2024/02/14 00:14:07;;;;;;;;;;;16.00;65.90;;;;;;5034102;28;19909;-72
2024/02/14 00:16:32;;;;;;;;;;;16.20;65.20;;;;;;5033632;28;20429;-72
2024/02/14 00:18:58;;;;;;;;;;;15.90;65.10;;;;;;5033561;28;19909;-72
2024/02/14 00:21:24;;;;;;;;;;;15.90;65.20;;;;;;5033860;28;20022;-72
2024/02/14 00:23:51;;;;;;;;;;;15.90;65.10;;;;;;5033729;28;20279;-73
2024/02/14 00:26:17;;;;;;;;;;;15.90;65.10;;;;;;5033718;28;19916;-72
2024/02/14 00:28:43;;;;;;;;;;;15.90;65.20;;;;;;5033629;28;20259;-72
2024/02/14 00:31:08;;;;;;;;;;;15.90;64.60;;;;;;5034021;28;20252;-72
2024/02/14 00:33:34;;;;;;;;;;;15.90;65.10;;;;;;5033571;28;19909;-72
2024/02/14 00:36:00;;;;;;;;;;;15.90;65.20;;;;;;5033451;28;19909;-72
2024/02/14 00:38:26;;;;;;;;;;;15.90;65.70;;;;;;5033566;28;20429;-73
2024/02/14 00:40:52;;;;;;;;;;;15.90;65.20;;;;;;5033187;28;19910;-72
2024/02/14 00:43:18;;;;;;;;;;;15.90;65.40;;;;;;5033498;28;20026;-72
2024/02/14 00:45:44;;;;;;;;;;;15.90;65.20;;;;;;5033257;28;19909;-72
2024/02/14 00:48:10;;;;;;;;;;;15.90;65.30;;;;;;5032266;28;20377;-72
2024/02/14 00:50:37;;;;;;;;;;;15.90;65.20;;;;;;5032896;28;20028;-73
2024/02/14 00:53:03;;;;;;;;;;;15.90;65.00;;;;;;5033157;28;19909;-72
2024/02/14 00:55:29;;;;;;;;;;;16.00;64.90;;;;;;5033280;28;20356;-73
2024/02/14 00:57:55;;;;;;;;;;;16.00;65.80;;;;;;5033472;28;19984;-72
2024/02/14 01:00:21;;;;;;;;;;;16.00;65.80;;;;;;5033070;28;19909;-72
2024/02/14 01:02:47;;;;;;;;;;;15.90;65.50;;;;;;5032680;28;20354;-72
2024/02/14 01:05:13;;;;;;;;;;;15.90;66.00;;;;;;5032700;28;20005;-72
2024/02/14 01:07:39;;;;;;;;;;;15.80;66.00;;;;;;5033023;28;19953;-72
2024/02/14 01:10:05;;;;;;;;;;;15.90;66.00;;;;;;5032915;28;19960;-72
2024/02/14 01:12:31;;;;;;;;;;;15.90;65.20;;;;;;5032961;28;19963;-72
2024/02/14 01:14:57;;;;;;;;;;;16.00;66.10;;;;;;5032810;28;19916;-73
2024/02/14 01:17:24;;;;;;;;;;;15.90;66.10;;;;;;5032554;28;19909;-72
2024/02/14 01:19:50;;;;;;;;;;;15.90;66.20;;;;;;5032854;28;19947;-72
2024/02/14 01:22:16;;;;;;;;;;;15.90;66.20;;;;;;5032477;28;19909;-72
2024/02/14 01:24:42;;;;;;;;;;;15.80;66.10;;;;;;5032904;28;19916;-72
2024/02/14 01:27:09;;;;;;;;;;;15.90;65.80;;;;;;5033256;28;19920;-72
2024/02/14 01:29:35;;;;;;;;;;;16.00;66.20;;;;;;5032744;28;19940;-72
2024/02/14 01:32:01;;;;;;;;;;;15.90;66.10;;;;;;5032316;28;19909;-73
2024/02/14 01:34:28;;;;;;;;;;;15.90;66.40;;;;;;5032684;28;19917;-73
2024/02/14 01:36:54;;;;;;;;;;;16.00;66.30;;;;;;5031076;28;19917;-72
2024/02/14 01:39:21;;;;;;;;;;;15.80;66.00;;;;;;5032441;28;19917;-72
2024/02/14 01:41:48;;;;;;;;;;;15.90;66.30;;;;;;5032263;28;19920;-72
2024/02/14 01:44:15;;;;;;;;;;;15.90;66.20;;;;;;5032481;28;19929;-72
2024/02/14 01:46:42;;;;;;;;;;;15.90;66.50;;;;;;5032494;28;19916;-72
2024/02/14 01:49:08;;;;;;;;;;;15.90;66.70;;;;;;5032113;28;20434;-73
2024/02/14 01:51:35;;;;;;;;;;;16.00;66.50;;;;;;5032419;28;20311;-72
2024/02/14 01:54:02;;;;;;;;;;;16.00;66.40;;;;;;5032476;28;20391;-72
2024/02/14 01:56:29;;;;;;;;;;;16.00;66.50;;;;;;5032138;28;19928;-72
2024/02/14 01:58:56;;;;;;;;;;;15.90;66.40;;;;;;5034232;28;19909;-73
2024/02/14 02:01:23;;;;;;;;;;;16.00;66.20;;;;;;5036368;28;20318;-72
2024/02/14 02:03:49;;;;;;;;;;;16.00;66.40;;;;;;5035913;28;19932;-72
2024/02/14 02:06:16;;;;;;;;;;;16.10;66.20;;;;;;5035984;28;20264;-72
2024/02/14 02:08:45;;;;;;;;;;;16.00;66.50;;;;;;5036311;28;19920;-73
2024/02/14 02:11:11;;;;;;;;;;;16.00;62.10;;;;;;5035897;28;19924;-73
2024/02/14 02:13:38;;;;;;;;;;;15.90;66.20;;;;;;5036508;28;19909;-72
2024/02/14 02:16:05;;;;;;;;;;;16.00;66.40;;;;;;5036142;28;20332;-73
2024/02/14 02:18:32;;;;;;;;;;;16.00;65.20;;;;;;5036113;28;19963;-73
2024/02/14 02:20:57;;;;;;;;;;;15.90;66.60;;;;;;5035757;28;19909;-73
2024/02/14 02:23:23;;;;;;;;;;;15.90;66.40;;;;;;5036074;28;19920;-72
2024/02/14 02:25:50;;;;;;;;;;;16.00;66.40;;;;;;5036036;28;19913;-73
2024/02/14 02:28:16;;;;;;;;;;;16.10;66.80;;;;;;5035940;28;19909;-72
2024/02/14 02:30:42;;;;;;;;;;;15.90;66.50;;;;;;5035850;28;19917;-72
2024/02/14 02:33:08;;;;;;;;;;;15.90;66.40;;;;;;5035823;28;19909;-72
2024/02/14 02:35:34;;;;;;;;;;;15.90;66.70;;;;;;5035832;28;19996;-72
2024/02/14 02:38:00;;;;;;;;;;;15.90;66.50;;;;;;5035819;28;19910;-72
2024/02/14 02:40:27;;;;;;;;;;;16.00;66.50;;;;;;5035787;28;19909;-72
2024/02/14 02:42:53;;;;;;;;;;;15.90;66.70;;;;;;5036340;28;20264;-72
2024/02/14 02:45:19;;;;;;;;;;;16.00;66.70;;;;;;5035704;28;19913;-72
2024/02/14 02:47:45;;;;;;;;;;;15.90;66.40;;;;;;5035387;28;19917;-72
2024/02/14 02:50:11;;;;;;;;;;;15.80;66.20;;;;;;5035491;28;19921;-71
2024/02/14 02:52:38;;;;;;;;;;;16.00;66.60;;;;;;5035634;28;20322;-72
2024/02/14 02:55:05;;;;;;;;;;;16.00;66.50;;;;;;5035366;28;19916;-72
2024/02/14 02:57:32;;;;;;;;;;;15.90;65.60;;;;;;5035441;28;19910;-72
2024/02/14 02:59:58;;;;;;;;;;;15.90;66.50;;;;;;5035465;28;19909;-72
2024/02/14 03:02:25;;;;;;;;;;;16.00;66.30;;;;;;5034950;28;20412;-72
2024/02/14 03:04:52;;;;;;;;;;;15.90;66.60;;;;;;5035434;28;19948;-72
2024/02/14 03:07:19;;;;;;;;;;;15.90;66.50;;;;;;5035300;28;19913;-72
2024/02/14 03:09:45;;;;;;;;;;;15.90;67.00;;;;;;5034076;28;19924;-72
2024/02/14 03:12:11;;;;;;;;;;;16.00;66.80;;;;;;5035692;28;19996;-72
2024/02/14 03:14:37;;;;;;;;;;;16.20;67.10;;;;;;5035118;28;19909;-72
2024/02/14 03:17:22;;;;;;;;;;;15.90;67.00;;;;;;5034596;28;20378;-72
2024/02/14 03:20:14;;;;;;;;;;;15.90;66.80;;;;;;5034769;28;19961;-72
2024/02/14 03:22:59;;;;;;;;;;;15.90;66.30;;;;;;5034694;28;19913;-72
2024/02/14 03:25:45;;;;;;;;;;;16.00;66.80;;;;;;5034471;28;19909;-72
2024/02/14 03:28:30;;;;;;;;;;;15.90;67.00;;;;;;5034509;28;19953;-72
2024/02/14 03:31:16;;;;;;;;;;;15.90;67.00;;;;;;5034372;28;19917;-72
2024/02/14 03:34:02;;;;;;;;;;;15.90;66.90;;;;;;5034456;28;19956;-72
2024/02/14 03:36:47;;;;;;;;;;;16.00;67.00;;;;;;5034472;28;20372;-73
2024/02/14 03:39:32;;;;;;;;;;;15.90;66.90;;;;;;5034984;28;19916;-72
2024/02/14 03:42:19;;;;;;;;;;;15.90;66.80;;;;;;5034590;28;20318;-72
2024/02/14 03:45:05;;;;;;;;;;;15.70;66.70;;;;;;5034235;28;20431;-72
2024/02/14 03:47:49;;;;;;;;;;;15.80;65.50;;;;;;5034193;28;19920;-72
2024/02/14 03:50:34;;;;;;;;;;;16.00;67.00;;;;;;5034073;28;19964;-72
2024/02/14 03:53:20;;;;;;;;;;;16.00;66.50;;;;;;5034033;28;19913;-72
2024/02/14 03:56:07;;;;;;;;;;;15.90;66.90;;;;;;5034153;28;19956;-72
2024/02/14 03:58:51;;;;;;;;;;;15.90;65.90;;;;;;5033962;28;19909;-72
2024/02/14 04:01:36;;;;;;;;;;;15.90;66.50;;;;;;5033854;28;19913;-72
2024/02/14 04:04:24;;;;;;;;;;;15.90;67.00;;;;;;5033137;28;20219;-72
2024/02/14 04:07:09;;;;;;;;;;;16.00;66.60;;;;;;5034355;28;19913;-72
2024/02/14 04:09:54;;;;;;;;;;;15.90;67.20;;;;;;5033700;28;19924;-72
2024/02/14 04:12:40;;;;;;;;;;;16.10;67.20;;;;;;5033649;28;19916;-72
2024/02/14 04:15:25;;;;;;;;;;;15.90;67.20;;;;;;5033674;28;19909;-72
2024/02/14 04:17:51;;;;;;;;;;;15.90;67.20;;;;;;5032443;28;20557;-72
2024/02/14 04:20:17;;;;;;;;;;;16.00;66.80;;;;;;5033566;28;19909;-72
2024/02/14 04:22:43;;;;;;;;;;;15.90;67.40;;;;;;5032644;28;19909;-72
2024/02/14 04:25:09;;;;;;;;;;;16.00;67.20;;;;;;5033698;28;19967;-72
2024/02/14 04:27:35;;;;;;;;;;;15.90;67.30;;;;;;5033678;28;19914;-72
2024/02/14 04:30:02;;;;;;;;;;;15.90;67.30;;;;;;5033554;28;19963;-72
2024/02/14 04:32:28;;;;;;;;;;;15.90;67.20;;;;;;5032105;28;19913;-72
2024/02/14 04:34:54;;;;;;;;;;;16.00;67.40;;;;;;5031950;28;19920;-72
2024/02/14 04:37:19;;;;;;;;;;;15.90;66.70;;;;;;5034001;28;19913;-72
2024/02/14 04:39:46;;;;;;;;;;;15.90;67.20;;;;;;5033445;28;19940;-72
2024/02/14 04:42:12;;;;;;;;;;;16.00;67.30;;;;;;5033295;28;20031;-72
2024/02/14 04:44:39;;;;;;;;;;;15.90;67.30;;;;;;5033301;28;19996;-72
2024/02/14 04:47:05;;;;;;;;;;;16.00;67.30;;;;;;5033382;28;19909;-72
2024/02/14 04:49:31;;;;;;;;;;;15.90;67.30;;;;;;5032927;28;20372;-72
2024/02/14 04:51:57;;;;;;;;;;;15.90;67.40;;;;;;5033193;28;19971;-72
2024/02/14 04:54:23;;;;;;;;;;;16.00;67.30;;;;;;5033295;28;19909;-72
2024/02/14 04:56:49;;;;;;;;;;;16.00;67.50;;;;;;5033149;28;19971;-72
2024/02/14 04:59:14;;;;;;;;;;;15.90;67.50;;;;;;5033115;28;20024;-72
2024/02/14 05:01:40;;;;;;;;;;;16.00;67.50;;;;;;5032551;28;20402;-73
2024/02/14 05:04:06;;;;;;;;;;;15.90;68.20;;;;;;5033275;28;19921;-72
2024/02/14 05:06:33;;;;;;;;;;;16.00;67.70;;;;;;5033049;28;19909;-72
2024/02/14 05:08:59;;;;;;;;;;;16.00;67.80;;;;;;5032969;28;19913;-72
2024/02/14 05:11:25;;;;;;;;;;;16.00;67.40;;;;;;5032875;28;20299;-72
2024/02/14 05:13:51;;;;;;;;;;;16.00;67.90;;;;;;5032898;28;19909;-72
2024/02/14 05:16:20;;;;;;;;;;;16.00;66.70;;;;;;5032892;28;20291;-72
2024/02/14 05:18:46;;;;;;;;;;;16.10;63.20;;;;;;5032528;28;20396;-72
2024/02/14 05:21:12;;;;;;;;;;;16.00;67.60;;;;;;5032793;28;20338;-72
2024/02/14 05:23:38;;;;;;;;;;;16.10;67.40;;;;;;5032713;28;19909;-72
2024/02/14 05:26:04;;;;;;;;;;;16.10;67.90;;;;;;5032610;28;20307;-72
2024/02/14 05:28:30;;;;;;;;;;;16.10;67.30;;;;;;5032523;28;20427;-73
2024/02/14 05:30:57;;;;;;;;;;;16.10;68.00;;;;;;5032418;28;19917;-72
2024/02/14 05:33:23;;;;;;;;;;;16.10;67.80;;;;;;5032985;28;19963;-72
2024/02/14 05:35:49;;;;;;;;;;;16.10;67.70;;;;;;5032392;28;19909;-72
2024/02/14 05:38:15;;;;;;;;;;;16.10;67.70;;;;;;5032441;28;19909;-72
2024/02/14 05:40:43;;;;;;;;;;;16.00;67.70;;;;;;5032477;28;20360;-72
2024/02/14 05:43:09;;;;;;;;;;;16.10;67.50;;;;;;5032693;28;20004;-72
2024/02/14 05:45:36;;;;;;;;;;;16.10;67.70;;;;;;5032686;28;20302;-72
2024/02/14 05:48:01;;;;;;;;;;;16.40;67.80;;;;;;5032668;28;19913;-72
2024/02/14 05:50:27;;;;;;;;;;;16.20;67.40;;;;;;5032555;28;19924;-72
2024/02/14 05:52:53;;;;;;;;;;;16.10;67.90;;;;;;5032742;28;20335;-72
2024/02/14 05:55:19;;;;;;;;;;;16.10;67.60;;;;;;5032584;28;19917;-72
2024/02/14 05:57:45;;;;;;;;;;;16.00;68.00;;;;;;5032291;28;19910;-72
2024/02/14 06:00:12;;;;;;;;;;;16.00;68.00;;;;;;5032455;28;19910;-72
2024/02/14 06:02:39;;;;;;;;;;;16.10;67.70;;;;;;5032583;28;20016;-72
2024/02/14 06:05:09;;;;;;;;;;;16.40;68.30;;;;;;5032132;28;20005;-72
2024/02/14 06:07:35;;;;;;;;;;;16.10;63.90;;;;;;5032158;28;19909;-72
2024/02/14 06:10:01;;;;;;;;;;;16.10;68.20;;;;;;5032387;28;19924;-72
2024/02/14 06:12:29;;;;;;;;;;;16.00;68.20;;;;;;5032480;28;19968;-72
2024/02/14 06:14:55;;;;;;;;;;;16.20;68.20;;;;;;5032437;28;19909;-72
2024/02/14 06:17:21;;;;;;;;;;;16.10;68.50;;;;;;5030785;28;19936;-72
2024/02/14 06:19:47;;;;;;;;;;;16.10;68.50;;;;;;5030918;28;19913;-72
2024/02/14 06:22:13;;;;;;;;;;;16.20;68.30;;;;;;5032252;28;19988;-72
2024/02/14 06:24:39;;;;;;;;;;;16.20;68.50;;;;;;5031067;28;20360;-72
2024/02/14 06:27:05;;;;;;;;;;;16.10;68.40;;;;;;5030767;28;19919;-72
2024/02/14 06:29:30;;;;;;;;;;;16.20;68.00;;;;;;5034641;28;19939;-71
2024/02/14 06:31:56;;;;;;;;;;;16.10;68.00;;;;;;5033394;28;19913;-72
2024/02/14 06:34:22;;;;;;;;;;;16.10;68.30;;;;;;5031696;28;20251;-72
2024/02/14 06:36:48;;;;;;;;;;;16.10;69.20;;;;;;5031990;28;19909;-71
2024/02/14 06:39:14;;;;;;;;;;;16.20;68.50;;;;;;5031923;28;19909;-72
2024/02/14 06:41:40;;;;;;;;;;;16.20;68.40;;;;;;5032018;28;20303;-72
2024/02/14 06:44:06;;;;;;;;;;;16.20;68.50;;;;;;5032212;28;19909;-72
2024/02/14 06:46:32;;;;;;;;;;;16.20;68.50;;;;;;5033561;28;19913;-72
2024/02/14 06:48:58;;;;;;;;;;;16.20;68.60;;;;;;5034004;28;19914;-72
2024/02/14 06:51:24;;;;;;;;;;;16.20;68.50;;;;;;5033926;28;19925;-72
2024/02/14 06:53:50;;;;;;;;;;;16.20;68.50;;;;;;5034292;28;20008;-72
2024/02/14 06:56:16;;;;;;;;;;;16.20;68.50;;;;;;5034083;28;19917;-71
2024/02/14 06:58:42;;;;;;;;;;;16.20;68.50;;;;;;5033953;28;19944;-74
2024/02/14 07:01:08;;;;;;;;;;;16.30;68.10;;;;;;5034174;28;19920;-71
2024/02/14 07:03:34;;;;;;;;;;;16.30;68.90;;;;;;5034832;28;19939;-71
2024/02/14 07:05:59;;;;;;;;;;;16.20;69.10;;;;;;5033634;28;19921;-71
2024/02/14 07:08:27;;;;;;;;;;;16.30;68.60;;;;;;5033967;28;20360;-71
2024/02/14 07:10:54;;;;;;;;;;;16.30;68.50;;;;;;5033895;28;19921;-71
2024/02/14 07:13:20;;;;;;;;;;;16.30;68.60;;;;;;5033539;28;19924;-72
2024/02/14 07:15:46;;;;;;;;;;;16.50;68.60;;;;;;5034107;28;19913;-72
2024/02/14 07:18:12;;;;;;;;;;;16.30;68.60;;;;;;5035688;28;19921;-72
2024/02/14 07:20:38;;;;;;;;;;;16.30;68.60;;;;;;5035074;28;19909;-72
2024/02/14 07:23:05;;;;;;;;;;;16.30;68.40;;;;;;5034755;28;19921;-72
2024/02/14 07:25:31;;;;;;;;;;;16.30;68.30;;;;;;5033816;28;19913;-71
2024/02/14 07:27:56;;;;;;;;;;;16.30;68.60;;;;;;5036109;28;20405;-71
2024/02/14 07:30:22;;;;;;;;;;;16.10;67.80;;;;;;5037854;28;19925;-72
2024/02/14 07:32:50;;;;;;;;;;;16.20;68.40;;;;;;5034418;28;19956;-72
2024/02/14 07:35:17;;;;;;;;;;;16.20;68.50;;;;;;5034761;28;19909;-73
2024/02/14 07:37:43;;;;;;;;;;;16.30;68.20;;;;;;5034287;28;19916;-78
2024/02/14 07:40:10;;;;;;;;;;;16.30;68.40;;;;;;5034507;28;20357;-74
2024/02/14 07:42:36;;;;;;;;;;;16.40;67.70;;;;;;5034128;28;20036;-74
2024/02/14 07:45:03;;;;;;;;;;;16.30;68.30;;;;;;5034983;28;19944;-73
2024/02/14 07:47:29;;;;;;;;;;;16.30;68.30;;;;;;5034034;28;19917;-72
2024/02/14 07:49:54;;;;;;;;;;;17.60;69.20;;;;;;5034282;28;19964;-72
2024/02/14 07:52:21;;;;;;;;;;;16.30;68.30;;;;;;5034317;28;20363;-72
2024/02/14 07:54:46;;;;;;;;;;;16.40;68.40;;;;;;5034166;28;19954;-72
2024/02/14 07:57:12;;;;;;;;;;;16.30;68.40;;;;;;5034762;28;19909;-72
2024/02/14 07:59:38;;;;;;;;;;;16.30;68.70;;;;;;5034142;28;20279;-71
2024/02/14 08:02:04;;;;;;;;;;;16.30;68.00;;;;;;5033858;28;20264;-72
2024/02/14 08:04:29;;;;;;;;;;;16.40;68.30;;;;;;5033864;28;19935;-72
2024/02/14 08:06:55;;;;;;;;;;;16.30;68.40;;;;;;5032550;28;19916;-72
2024/02/14 08:09:20;;;;;;;;;;;16.30;68.50;;;;;;5033722;28;19964;-72
2024/02/14 08:11:46;;;;;;;;;;;16.30;68.60;;;;;;5033690;28;19932;-73
2024/02/14 08:14:12;;;;;;;;;;;16.40;68.40;;;;;;5034321;28;19909;-75
2024/02/14 08:16:37;;;;;;;;;;;16.30;68.10;;;;;;5033632;28;19916;-74
2024/02/14 08:19:03;;;;;;;;;;;16.30;68.80;;;;;;5033578;28;19912;-73
2024/02/14 08:21:29;;;;;;;;;;;16.30;68.60;;;;;;5032635;28;19914;-74
2024/02/14 08:23:55;;;;;;;;;;;16.60;68.80;;;;;;5033482;28;19975;-73
2024/02/14 08:26:22;;;;;;;;;;;16.30;68.70;;;;;;5032651;28;19999;-73
2024/02/14 08:28:48;;;;;;;;;;;16.30;68.30;;;;;;5031995;28;19924;-73
2024/02/14 08:31:14;;;;;;;;;;;16.30;68.80;;;;;;5032294;28;19960;-73
2024/02/14 08:33:40;;;;;;;;;;;16.40;68.80;;;;;;5033490;28;19941;-73
2024/02/14 08:36:06;;;;;;;;;;;16.30;68.60;;;;;;5033232;28;20256;-73
2024/02/14 08:38:32;;;;;;;;;;;16.40;68.00;;;;;;5033085;28;19909;-73
2024/02/14 08:40:57;;;;;;;;;;;16.30;68.30;;;;;;5033076;28;19910;-73
2024/02/14 08:43:28;;;;;;;;;;;16.40;68.60;;;;;;5032297;28;20296;-73
2024/02/14 08:45:54;;;;;;;;;;;16.40;65.00;;;;;;5032993;28;19967;-73
2024/02/14 08:48:19;;;;;;;;;;;16.40;68.70;;;;;;5032980;28;19933;-73
2024/02/14 08:50:45;;;;;;;;;;;16.30;68.50;;;;;;5032821;28;19978;-73
2024/02/14 08:53:15;;;;;;;;;;;16.50;68.50;;;;;;5032843;28;19975;-73
2024/02/14 08:55:40;;;;;;;;;;;16.30;68.60;;;;;;5032865;28;19909;-74
2024/02/14 08:58:06;;;;;;;;;;;16.40;68.40;;;;;;5032733;28;20337;-72
2024/02/14 09:00:35;;;;;;;;;;;16.30;68.60;;;;;;5032746;28;19940;-72
2024/02/14 09:03:00;;;;;;;;;;;16.40;68.00;;;;;;5032369;28;19921;-72
2024/02/14 09:05:28;;;;;;;;;;;16.40;68.60;;;;;;5032667;28;20008;-72
2024/02/14 09:07:53;;;;;;;;;;;16.40;68.60;;;;;;5032272;28;19909;-73
2024/02/14 09:10:19;;;;;;;;;;;16.40;68.90;;;;;;5033178;28;19921;-72
2024/02/14 09:12:44;;;;;;;;;;;16.40;68.30;;;;;;5032546;28;19948;-72
2024/02/14 09:15:11;;;;;;;;;;;16.40;68.80;;;;;;5032544;28;19909;-72
2024/02/14 09:17:38;;;;;;;;;;;16.40;69.00;;;;;;5032543;28;19996;-72
2024/02/14 09:20:06;;;;;;;;;;;16.40;68.90;;;;;;5032462;28;19956;-72
2024/02/14 09:22:32;;;;;;;;;;;16.40;67.80;;;;;;5032505;28;19913;-72
2024/02/14 09:24:57;;;;;;;;;;;16.40;68.80;;;;;;5032490;28;20027;-72
2024/02/14 09:27:23;;;;;;;;;;;16.40;68.80;;;;;;5032751;28;19909;-72
2024/02/14 09:29:49;;;;;;;;;;;16.40;68.80;;;;;;5032444;28;20402;-72
2024/02/14 09:32:15;;;;;;;;;;;16.50;68.70;;;;;;5032291;28;19909;-72
2024/02/14 09:34:40;;;;;;;;;;;16.40;68.60;;;;;;5032664;28;19917;-72
2024/02/14 09:37:06;;;;;;;;;;;16.40;68.90;;;;;;5032556;28;20044;-72
2024/02/14 09:39:33;;;;;;;;;;;16.40;68.70;;;;;;5032890;28;20283;-72
2024/02/14 09:42:02;;;;;;;;;;;16.40;68.80;;;;;;5032476;28;19917;-73
2024/02/14 09:44:28;;;;;;;;;;;16.40;68.00;;;;;;5032612;28;19946;-73
2024/02/14 09:46:55;;;;;;;;;;;16.40;68.70;;;;;;5032463;28;19910;-72
2024/02/14 09:49:21;;;;;;;;;;;16.40;69.00;;;;;;5032088;28;19996;-72
2024/02/14 09:51:48;;;;;;;;;;;16.40;69.00;;;;;;5032182;28;19916;-72
2024/02/14 09:54:14;;;;;;;;;;;16.40;69.20;;;;;;5032308;28;19953;-72
2024/02/14 09:56:40;;;;;;;;;;;16.40;69.20;;;;;;5032101;28;19913;-73
2024/02/14 09:59:06;;;;;;;;;;;16.40;69.20;;;;;;5031953;28;19909;-72
2024/02/14 10:01:31;;;;;;;;;;;16.70;68.80;;;;;;5031941;28;19967;-72
2024/02/14 10:03:57;;;;;;;;;;;16.40;67.60;;;;;;5031820;28;20013;-72
2024/02/14 10:06:25;;;;;;;;;;;16.40;69.10;;;;;;5031939;28;19944;-72
2024/02/14 10:08:51;;;;;;;;;;;16.40;68.90;;;;;;5032509;28;20003;-73
2024/02/14 10:11:21;;;;;;;;;;;16.40;69.20;;;;;;5031906;28;20004;-72
2024/02/14 10:13:47;;;;;;;;;;;16.60;69.40;;;;;;5031896;28;19909;-72
2024/02/14 10:16:14;;;;;;;;;;;16.40;69.70;;;;;;5031786;28;19955;-72
2024/02/14 10:18:39;;;;;;;;;;;16.40;69.50;;;;;;5031999;28;19940;-73
2024/02/14 10:21:05;;;;;;;;;;;16.40;69.50;;;;;;5036090;28;19963;-72
2024/02/14 10:23:32;;;;;;;;;;;16.50;69.10;;;;;;5036018;28;20291;-72
2024/02/14 10:25:58;;;;;;;;;;;16.60;69.60;;;;;;5035949;28;19915;-72
2024/02/14 10:28:24;;;;;;;;;;;16.50;69.70;;;;;;5035646;28;19909;-72
2024/02/14 10:30:50;;;;;;;;;;;16.50;69.60;;;;;;5035608;28;19968;-72
2024/02/14 10:33:15;;;;;;;;;;;16.50;69.70;;;;;;5035793;28;20408;-72
2024/02/14 10:35:42;;;;;;;;;;;16.50;69.20;;;;;;5036411;28;19963;-72
2024/02/14 10:38:09;;;;;;;;;;;16.50;69.70;;;;;;5035468;28;20008;-73
2024/02/14 10:40:38;;;;;;;;;;;16.50;69.90;;;;;;5035363;28;19964;-72
2024/02/14 10:43:05;;;;;;;;;;;16.60;70.00;;;;;;5035402;28;19909;-72
2024/02/14 10:45:31;;;;;;;;;;;16.50;69.40;;;;;;5035271;28;19916;-73
2024/02/14 10:47:57;;;;;;;;;;;16.50;69.80;;;;;;5035423;28;19909;-72
2024/02/14 10:50:24;;;;;;;;;;;16.60;69.90;;;;;;5035078;28;19921;-72
2024/02/14 10:52:52;;;;;;;;;;;16.60;69.90;;;;;;5035183;28;19932;-73
2024/02/14 10:55:20;;;;;;;;;;;16.60;70.10;;;;;;5035119;28;19909;-72
2024/02/14 10:57:46;;;;;;;;;;;16.60;70.00;;;;;;5035106;28;19909;-72
2024/02/14 11:00:14;;;;;;;;;;;16.60;70.00;;;;;;5035064;28;20512;-72
2024/02/14 11:02:40;;;;;;;;;;;16.60;69.40;;;;;;5034949;28;20334;-72
2024/02/14 11:05:06;;;;;;;;;;;16.60;69.80;;;;;;5035777;28;19909;-72
2024/02/14 11:07:32;;;;;;;;;;;16.70;69.50;;;;;;5035018;28;19909;-72
2024/02/14 11:10:04;;;;;;;;;;;16.70;70.00;;;;;;5034927;28;19927;-72
2024/02/14 11:12:38;;;;;;;;;;;16.60;65.70;;;;;;5034905;28;19913;-72
2024/02/14 11:15:11;;;;;;;;;;;16.60;65.70;;;;;;5034880;28;19909;-72
2024/02/14 11:17:37;;;;;;;;;;;16.60;65.70;;;;;;5034866;28;19966;-73
2024/02/14 11:20:14;;;;;;;;;;;16.60;70.20;;;;;;5034728;28;20007;-72
2024/02/14 11:22:49;;;;;;;;;;;16.60;65.60;;;;;;5034589;28;19913;-72
2024/02/14 11:25:15;;;;;;;;;;;16.40;70.10;;;;;;5033413;28;19925;-73
2024/02/14 11:27:47;;;;;;;;;;;16.70;69.50;;;;;;5034508;28;19909;-72
2024/02/14 11:30:12;;;;;;;;;;;16.60;65.70;;;;;;5034392;28;19917;-72
2024/02/14 11:32:42;;;;;;;;;;;16.70;69.60;;;;;;5034089;28;19963;-72
2024/02/14 11:35:11;;;;;;;;;;;16.70;69.20;;;;;;5034757;28;19909;-72
2024/02/14 11:37:36;;;;;;;;;;;16.70;69.80;;;;;;5034380;28;19996;-72
2024/02/14 11:40:02;;;;;;;;;;;16.60;69.80;;;;;;5033194;28;20007;-73
2024/02/14 11:42:28;;;;;;;;;;;16.70;69.60;;;;;;5034413;28;19909;-73
2024/02/14 11:44:57;;;;;;;;;;;16.70;70.10;;;;;;5034767;28;19913;-73
2024/02/14 11:47:24;;;;;;;;;;;16.70;70.40;;;;;;5034309;28;19917;-72
2024/02/14 11:49:50;;;;;;;;;;;16.60;70.10;;;;;;5034147;28;20000;-73
2024/02/14 11:52:17;;;;;;;;;;;16.70;70.30;;;;;;5034157;28;20509;-72
2024/02/14 11:54:48;;;;;;;;;;;16.70;70.40;;;;;;5034385;28;19992;-72
2024/02/14 11:57:16;;;;;;;;;;;16.70;65.80;;;;;;5034448;28;19916;-73
2024/02/14 11:59:42;;;;;;;;;;;16.70;70.20;;;;;;5034020;28;20368;-72
2024/02/14 12:38:38;;;;;;;;;;;16.80;69.60;;;;;;4899847;26;19928;-73
2024/02/14 12:41:04;;;;;;;;;;;16.90;70.40;;;;;;5072088;28;20467;-72
2024/02/14 12:43:30;;;;;;;;;;;16.70;69.90;;;;;;5071033;28;19908;-73
2024/02/14 12:45:56;;;;;;;;;;;16.80;69.80;;;;;;5054351;28;19908;-73
2024/02/14 12:48:26;;;;;;;;;;;16.80;69.90;;;;;;5072101;28;19916;-73
2024/02/14 12:50:52;;;;;;;;;;;16.70;70.50;;;;;;5072345;28;19920;-74
2024/02/14 12:53:21;;;;;;;;;;;16.70;70.20;;;;;;5072076;28;20354;-75
2024/02/14 12:55:47;;;;;;;;;;;16.80;69.80;;;;;;5071694;28;20388;-72
2024/02/14 12:58:13;;;;;;;;;;;16.70;69.90;;;;;;5072457;28;19939;-72
2024/02/14 13:00:39;;;;;;;;;;;16.80;70.10;;;;;;5071840;28;19931;-72
2024/02/14 13:03:05;;;;;;;;;;;16.80;69.80;;;;;;5071613;28;19920;-72
2024/02/14 13:05:31;;;;;;;;;;;16.90;70.80;;;;;;5071794;28;19908;-72
2024/02/14 13:07:57;;;;;;;;;;;16.80;70.50;;;;;;5071914;28;20345;-72
2024/02/14 13:10:23;;;;;;;;;;;16.90;70.80;;;;;;5071320;28;20038;-73
2024/02/14 13:12:50;;;;;;;;;;;16.70;70.40;;;;;;5071760;28;20094;-72
2024/02/14 13:15:16;;;;;;;;;;;16.80;70.40;;;;;;5071776;28;19909;-72
2024/02/14 13:17:43;;;;;;;;;;;16.70;70.60;;;;;;5071644;28;19983;-72
2024/02/14 13:20:09;;;;;;;;;;;16.80;70.20;;;;;;5071778;28;19968;-72
2024/02/14 13:22:36;;;;;;;;;;;16.70;69.50;;;;;;5071571;28;19912;-72
2024/02/14 13:25:02;;;;;;;;;;;16.70;70.70;;;;;;5071570;28;19915;-72
2024/02/14 13:27:28;;;;;;;;;;;16.80;70.30;;;;;;5072753;28;20367;-73
2024/02/14 13:29:54;;;;;;;;;;;16.80;70.20;;;;;;5071126;28;20408;-73
2024/02/14 13:32:20;;;;;;;;;;;16.80;70.50;;;;;;5071520;28;20308;-72
2024/02/14 13:34:47;;;;;;;;;;;17.00;70.50;;;;;;5071384;28;19908;-74
2024/02/14 13:37:15;;;;;;;;;;;16.80;70.50;;;;;;5078531;28;20391;-74
2024/02/14 13:39:41;;;;;;;;;;;16.80;70.30;;;;;;5091690;28;20384;-73
2024/02/14 13:42:07;;;;;;;;;;;16.80;70.20;;;;;;5091355;28;19943;-74
2024/02/14 13:44:33;;;;;;;;;;;16.80;70.70;;;;;;5091414;28;19915;-73
2024/02/14 13:46:59;;;;;;;;;;;16.80;71.30;;;;;;5091489;28;19913;-73
2024/02/14 13:49:26;;;;;;;;;;;16.80;70.50;;;;;;5091076;28;19912;-74
2024/02/14 13:51:52;;;;;;;;;;;16.70;70.40;;;;;;5091396;28;19943;-74
2024/02/14 13:54:18;;;;;;;;;;;16.80;70.90;;;;;;5093496;28;20422;-73
2024/02/14 13:56:45;;;;;;;;;;;16.80;70.50;;;;;;5098731;28;19965;-74
2024/02/14 13:59:11;;;;;;;;;;;16.80;71.00;;;;;;5098067;28;19915;-73
2024/02/14 14:01:37;;;;;;;;;;;16.80;70.20;;;;;;5098104;28;19908;-74
2024/02/14 14:04:03;;;;;;;;;;;16.70;70.60;;;;;;5097797;28;19915;-73
2024/02/14 14:06:30;;;;;;;;;;;16.80;70.80;;;;;;5097945;28;19912;-73
2024/02/14 14:08:56;;;;;;;;;;;16.80;71.20;;;;;;5098272;28;19915;-73
2024/02/14 14:11:22;;;;;;;;;;;16.90;70.90;;;;;;5098060;28;19955;-72
2024/02/14 14:13:48;;;;;;;;;;;16.80;71.30;;;;;;5097720;28;20501;-73
2024/02/14 14:16:15;;;;;;;;;;;16.80;70.60;;;;;;5097680;28;20007;-74
2024/02/14 14:18:41;;;;;;;;;;;16.80;70.90;;;;;;5098086;28;19908;-73
2024/02/14 14:21:07;;;;;;;;;;;16.60;70.60;;;;;;5097803;28;20392;-73
2024/02/14 14:23:33;;;;;;;;;;;16.80;71.70;;;;;;5098151;28;19908;-73
2024/02/14 14:26:00;;;;;;;;;;;16.80;72.00;;;;;;5097539;28;19969;-73
2024/02/14 14:28:27;;;;;;;;;;;16.90;71.20;;;;;;5097780;28;20363;-73
2024/02/14 14:30:56;;;;;;;;;;;16.90;70.90;;;;;;5097051;28;19917;-73
2024/02/14 14:33:22;;;;;;;;;;;16.80;67.20;;;;;;5097387;28;19908;-72
2024/02/14 14:35:54;;;;;;;;;;;16.90;72.40;;;;;;5097683;28;20350;-73
2024/02/14 14:38:21;;;;;;;;;;;16.80;67.90;;;;;;5097050;28;19920;-72
2024/02/14 14:40:47;;;;;;;;;;;16.90;71.80;;;;;;5097452;28;19908;-73
2024/02/14 14:43:13;;;;;;;;;;;16.80;71.40;;;;;;5079290;28;19934;-73
2024/02/14 14:45:41;;;;;;;;;;;16.80;70.90;;;;;;5097498;28;19974;-72
2024/02/14 14:48:08;;;;;;;;;;;16.80;71.10;;;;;;5095966;28;19908;-73
2024/02/14 14:50:35;;;;;;;;;;;16.80;71.30;;;;;;5097094;28;20138;-73
2024/02/14 14:53:01;;;;;;;;;;;16.80;71.70;;;;;;5097490;28;19908;-73
2024/02/14 14:55:47;;;;;;;;;;;16.90;71.30;;;;;;5097151;28;19974;-73